createdAt,value
2017-09-07T00:00:15.365Z,98882.75
2017-09-07T00:02:45.594Z,98886.18
2017-09-07T00:05:15.135Z,98884.27
2017-09-07T00:07:44.591Z,98890.64
2017-09-07T00:10:15.834Z,98884.02
2017-09-07T00:12:45.447Z,98887.87
2017-09-07T00:15:14.623Z,98890.88
2017-09-07T00:17:45.049Z,98883.22
2017-09-07T00:20:14.716Z,98882.53
2017-09-07T00:22:44.335Z,98875.91
2017-09-07T00:25:14.941Z,98880.02
2017-09-07T00:27:44.477Z,98885.72
2017-09-07T00:30:15.545Z,98879.87
2017-09-07T00:32:45.527Z,98884.52
2017-09-07T00:35:14.907Z,98877.00
2017-09-07T00:37:44.399Z,98879.03
2017-09-07T00:40:14.712Z,98864.85
2017-09-07T00:42:44.403Z,98872.19
2017-09-07T00:45:14.992Z,98865.23
2017-09-07T00:47:45.079Z,98860.07
2017-09-07T00:50:14.632Z,98865.07
2017-09-07T00:52:44.120Z,98868.19
2017-09-07T00:55:14.459Z,98854.65
2017-09-07T00:57:44.246Z,98853.62
2017-09-07T01:00:14.187Z,98851.40
2017-09-07T01:02:44.182Z,98857.58
2017-09-07T01:05:14.933Z,98861.59
2017-09-07T01:07:44.736Z,98856.59
2017-09-07T01:10:14.883Z,98863.44
2017-09-07T01:12:44.463Z,98865.91
2017-09-07T01:15:14.503Z,98862.94
2017-09-07T01:17:44.051Z,98862.70
2017-09-07T01:20:14.786Z,98859.66
2017-09-07T01:22:44.515Z,98856.56
2017-09-07T01:25:14.742Z,98848.67
2017-09-07T01:27:44.271Z,98848.87
2017-09-07T01:30:15.040Z,98852.16
2017-09-07T01:32:44.483Z,98850.05
2017-09-07T01:35:14.155Z,98856.00
2017-09-07T01:37:44.022Z,98854.55
2017-09-07T01:40:13.463Z,98843.38
2017-09-07T01:42:43.026Z,98852.09
2017-09-07T01:45:13.427Z,98838.40
2017-09-07T01:47:43.526Z,98843.70
2017-09-07T01:50:12.979Z,98845.88
2017-09-07T01:52:42.763Z,98845.84
2017-09-07T01:55:12.769Z,98852.67
2017-09-07T01:57:42.098Z,98850.27
2017-09-07T02:00:13.101Z,98847.98
2017-09-07T02:02:42.666Z,98850.08
2017-09-07T02:05:12.586Z,98847.83
2017-09-07T02:07:42.163Z,98839.82
2017-09-07T02:10:12.579Z,98843.25
2017-09-07T02:12:42.335Z,98841.06
2017-09-07T02:15:13.815Z,98842.15
2017-09-07T02:17:43.268Z,98841.96
2017-09-07T02:20:14.709Z,98839.97
2017-09-07T02:22:44.080Z,98836.13
2017-09-07T02:25:15.183Z,98836.88
2017-09-07T02:27:44.815Z,98836.55
2017-09-07T02:30:14.458Z,98831.78
2017-09-07T02:32:44.146Z,98830.50
2017-09-07T02:35:14.249Z,98831.11
2017-09-07T02:37:43.879Z,98831.61
2017-09-07T02:40:13.383Z,98833.70
2017-09-07T02:42:42.972Z,98832.12
2017-09-07T02:45:14.207Z,98827.94
2017-09-07T02:47:44.435Z,98820.92
2017-09-07T02:50:15.265Z,98819.12
2017-09-07T02:52:44.584Z,98822.02
2017-09-07T02:55:15.078Z,98816.75
2017-09-07T02:57:44.879Z,98821.00
2017-09-07T03:00:14.351Z,98820.89
2017-09-07T03:02:44.255Z,98815.09
2017-09-07T03:05:13.739Z,98809.67
2017-09-07T03:07:43.158Z,98812.14
2017-09-07T03:10:14.748Z,98818.17
2017-09-07T03:12:44.153Z,98819.41
2017-09-07T03:15:14.531Z,98822.23
2017-09-07T03:17:44.468Z,98817.57
2017-09-07T03:20:14.683Z,98818.83
2017-09-07T03:22:44.556Z,98813.99
2017-09-07T03:25:14.339Z,98810.91
2017-09-07T03:27:45.135Z,98808.95
2017-09-07T03:30:14.640Z,98802.75
2017-09-07T03:32:44.036Z,98801.00
2017-09-07T03:35:15.271Z,98804.80
2017-09-07T03:37:45.154Z,98804.97
2017-09-07T03:40:14.623Z,98804.30
2017-09-07T03:42:44.230Z,98801.66
2017-09-07T03:45:14.836Z,98797.80
2017-09-07T03:47:44.307Z,98801.95
2017-09-07T03:50:14.643Z,98798.34
2017-09-07T03:52:44.498Z,98810.05
2017-09-07T03:55:15.192Z,98814.78
2017-09-07T03:57:44.819Z,98812.75
2017-09-07T04:00:15.852Z,98816.30
2017-09-07T04:02:45.278Z,98810.28
2017-09-07T04:05:14.816Z,98816.53
2017-09-07T04:07:44.981Z,98813.09
2017-09-07T04:10:14.785Z,98810.47
2017-09-07T04:12:45.249Z,98808.17
2017-09-07T04:15:14.539Z,98806.47
2017-09-07T04:17:44.526Z,98798.97
2017-09-07T04:20:14.453Z,98799.45
2017-09-07T04:22:44.037Z,98802.02
2017-09-07T04:25:14.543Z,98811.21
2017-09-07T04:27:44.051Z,98807.11
2017-09-07T04:30:13.578Z,98802.22
2017-09-07T04:32:43.416Z,98798.80
2017-09-07T04:35:12.651Z,98792.06
2017-09-07T04:37:42.118Z,98793.48
2017-09-07T04:40:12.662Z,98799.13
2017-09-07T04:42:42.163Z,98794.25
2017-09-07T04:45:13.794Z,98798.41
2017-09-07T04:47:44.520Z,98795.91
2017-09-07T04:50:15.256Z,98798.84
2017-09-07T04:52:44.478Z,98793.08
2017-09-07T04:55:14.770Z,98799.67
2017-09-07T04:57:44.215Z,98797.55
2017-09-07T05:00:15.067Z,98796.28
2017-09-07T05:02:44.813Z,98797.63
2017-09-07T05:05:14.206Z,98795.73
2017-09-07T05:07:43.459Z,98798.39
2017-09-07T05:10:13.129Z,98800.12
2017-09-07T05:12:42.403Z,98803.58
2017-09-07T05:15:11.711Z,98799.39
2017-09-07T05:17:41.432Z,98796.47
2017-09-07T05:20:12.789Z,98792.73
2017-09-07T05:22:42.449Z,98798.47
2017-09-07T05:25:19.256Z,98796.25
2017-09-07T05:27:49.184Z,98794.83
2017-09-07T05:30:18.737Z,98796.50
2017-09-07T05:32:48.015Z,98795.33
2017-09-07T05:35:17.304Z,98798.91
2017-09-07T05:37:46.807Z,98804.00
2017-09-07T05:40:15.991Z,98805.94
2017-09-07T05:42:45.172Z,98811.78
2017-09-07T05:45:14.710Z,98815.34
2017-09-07T05:47:43.964Z,98821.86
2017-09-07T05:50:14.146Z,98812.22
2017-09-07T05:52:43.969Z,98810.87
2017-09-07T05:55:14.423Z,98814.16
2017-09-07T05:57:43.779Z,98815.98
2017-09-07T06:00:14.817Z,98814.05
2017-09-07T06:02:44.099Z,98821.67
2017-09-07T06:05:16.726Z,98818.72
2017-09-07T06:07:46.251Z,98821.17
2017-09-07T06:10:16.701Z,98817.91
2017-09-07T06:12:46.043Z,98818.92
2017-09-07T06:15:15.947Z,98820.19
2017-09-07T06:17:45.622Z,98812.09
2017-09-07T06:20:15.251Z,98813.17
2017-09-07T06:22:44.799Z,98811.39
2017-09-07T06:25:14.967Z,98808.25
2017-09-07T06:27:44.281Z,98814.89
2017-09-07T06:30:14.875Z,98818.00
2017-09-07T06:32:44.095Z,98814.07
2017-09-07T06:35:13.994Z,98823.51
2017-09-07T06:37:43.582Z,98817.66
2017-09-07T06:40:14.129Z,98817.41
2017-09-07T06:42:43.752Z,98823.14
2017-09-07T06:45:15.407Z,98819.05
2017-09-07T06:47:44.663Z,98822.53
2017-09-07T06:50:14.433Z,98818.95
2017-09-07T06:52:44.242Z,98817.23
2017-09-07T06:55:14.291Z,98825.94
2017-09-07T06:57:43.775Z,98816.30
2017-09-07T07:00:16.621Z,98814.89
2017-09-07T07:02:45.898Z,98807.36
2017-09-07T07:05:15.183Z,98821.97
2017-09-07T07:07:45.007Z,98826.21
2017-09-07T07:10:14.331Z,98823.89
2017-09-07T07:12:43.691Z,98830.48
2017-09-07T07:15:13.391Z,98823.39
2017-09-07T07:17:43.005Z,98834.66
2017-09-07T07:20:12.287Z,98829.86
2017-09-07T07:22:41.838Z,98837.33
2017-09-07T07:25:11.083Z,98837.33
2017-09-07T07:27:40.353Z,98835.66
2017-09-07T07:30:11.568Z,98837.91
2017-09-07T07:32:40.842Z,98848.13
2017-09-07T07:35:11.244Z,98851.51
2017-09-07T07:37:41.054Z,98854.03
2017-09-07T07:40:11.474Z,98856.58
2017-09-07T07:42:41.660Z,98852.81
2017-09-07T07:45:13.018Z,98852.61
2017-09-07T07:47:42.711Z,98855.25
2017-09-07T07:50:13.903Z,98858.44
2017-09-07T07:52:43.678Z,98861.33
2017-09-07T07:55:14.489Z,98861.12
2017-09-07T07:57:43.929Z,98859.19
2017-09-07T08:00:13.555Z,98859.48
2017-09-07T08:02:42.767Z,98857.28
2017-09-07T08:05:13.277Z,98855.64
2017-09-07T08:07:46.931Z,98867.91
2017-09-07T08:10:16.143Z,98859.25
2017-09-07T08:12:45.699Z,98855.66
2017-09-07T08:15:15.194Z,98861.22
2017-09-07T08:17:44.820Z,98858.49
2017-09-07T08:20:14.407Z,98860.23
2017-09-07T08:22:43.889Z,98863.75
2017-09-07T08:25:14.704Z,98867.25
2017-09-07T08:27:43.877Z,98869.75
2017-09-07T08:30:13.427Z,98868.32
2017-09-07T08:32:42.705Z,98872.42
2017-09-07T08:35:14.487Z,98877.02
2017-09-07T08:37:44.819Z,98886.92
2017-09-07T08:40:15.234Z,98885.09
2017-09-07T08:42:44.755Z,98877.16
2017-09-07T08:45:14.616Z,98881.83
2017-09-07T08:47:43.864Z,98888.00
2017-09-07T08:50:14.648Z,98885.01
2017-09-07T08:52:44.131Z,98888.27
2017-09-07T08:55:14.552Z,98883.16
2017-09-07T08:57:43.939Z,98889.78
2017-09-07T09:00:14.804Z,98886.80
2017-09-07T09:02:44.475Z,98886.03
2017-09-07T09:05:14.310Z,98878.58
2017-09-07T09:07:43.971Z,98875.56
2017-09-07T09:10:14.666Z,98875.16
2017-09-07T09:12:44.056Z,98875.31
2017-09-07T09:15:15.267Z,98876.18
2017-09-07T09:17:45.974Z,98877.01
2017-09-07T09:20:15.181Z,98877.02
2017-09-07T09:22:46.016Z,98886.17
2017-09-07T09:25:15.304Z,98872.33
2017-09-07T09:27:44.791Z,98876.78
2017-09-07T09:30:14.836Z,98875.17
2017-09-07T09:32:44.138Z,98874.17
2017-09-07T09:35:14.676Z,98875.75
2017-09-07T09:37:44.357Z,98872.50
2017-09-07T09:40:15.170Z,98868.95
2017-09-07T09:42:44.715Z,98876.69
2017-09-07T09:45:14.539Z,98871.13
2017-09-07T09:47:45.078Z,98874.19
2017-09-07T09:50:15.331Z,98866.59
2017-09-07T09:52:45.115Z,98868.70
2017-09-07T09:55:15.289Z,98868.77
2017-09-07T09:57:44.713Z,98859.83
2017-09-07T10:00:14.860Z,98872.73
2017-09-07T10:02:44.235Z,98874.42
2017-09-07T10:05:15.408Z,98864.73
2017-09-07T10:07:45.506Z,98870.72
2017-09-07T10:10:14.976Z,98858.53
2017-09-07T10:12:44.156Z,98866.59
2017-09-07T10:15:14.352Z,98861.48
2017-09-07T10:17:44.570Z,98858.34
2017-09-07T10:20:14.490Z,98864.02
2017-09-07T10:22:43.952Z,98862.31
2017-09-07T10:27:48.431Z,98856.41
2017-09-07T10:30:17.932Z,98851.94
2017-09-07T10:32:47.143Z,98848.40
2017-09-07T10:35:16.343Z,98847.92
2017-09-07T10:37:46.040Z,98843.98
2017-09-07T10:40:15.240Z,98835.41
2017-09-07T10:42:44.797Z,98831.72
2017-09-07T10:45:15.358Z,98832.69
2017-09-07T10:47:44.520Z,98830.46
2017-09-07T10:50:14.312Z,98829.09
2017-09-07T10:52:43.838Z,98828.02
2017-09-07T10:55:13.056Z,98830.22
2017-09-07T10:57:42.293Z,98825.38
2017-09-07T11:00:14.169Z,98821.31
2017-09-07T11:02:43.391Z,98818.82
2017-09-07T11:05:13.495Z,98816.88
2017-09-07T11:07:43.212Z,98811.23
2017-09-07T11:10:14.385Z,98807.05
2017-09-07T11:12:43.596Z,98818.28
2017-09-07T11:15:14.712Z,98820.32
2017-09-07T11:17:44.091Z,98814.43
2017-09-07T11:20:15.072Z,98817.06
2017-09-07T11:22:47.616Z,98824.11
2017-09-07T11:25:17.075Z,98820.91
2017-09-07T11:27:46.358Z,98817.09
2017-09-07T11:30:15.567Z,98819.00
2017-09-07T11:32:45.045Z,98811.59
2017-09-07T11:35:15.739Z,98810.02
2017-09-07T11:37:45.011Z,98806.56
2017-09-07T11:40:14.442Z,98802.25
2017-09-07T11:42:44.195Z,98807.88
2017-09-07T11:45:15.152Z,98817.88
2017-09-07T11:47:44.416Z,98807.43
2017-09-07T11:50:15.634Z,98808.61
2017-09-07T11:52:44.897Z,98797.87
2017-09-07T11:55:15.432Z,98804.86
2017-09-07T11:57:45.384Z,98801.22
2017-09-07T12:00:15.436Z,98795.84
2017-09-07T12:02:44.723Z,98793.31
2017-09-07T12:05:15.732Z,98785.45
2017-09-07T12:07:46.180Z,98791.09
2017-09-07T12:10:15.463Z,98790.06
2017-09-07T12:12:45.012Z,98785.69
2017-09-07T12:15:14.558Z,98779.48
2017-09-07T12:17:43.786Z,98773.82
2017-09-07T12:20:14.846Z,98774.91
2017-09-07T12:22:44.091Z,98774.50
2017-09-07T12:25:16.831Z,98775.89
2017-09-07T12:27:46.329Z,98775.22
2017-09-07T12:30:15.891Z,98772.66
2017-09-07T12:32:46.591Z,98771.89
2017-09-07T12:35:16.307Z,98775.48
2017-09-07T12:37:45.539Z,98768.70
2017-09-07T12:40:16.010Z,98771.75
2017-09-07T12:42:46.043Z,98772.91
2017-09-07T12:45:16.156Z,98769.25
2017-09-07T12:47:45.512Z,98772.74
2017-09-07T12:50:15.183Z,98767.56
2017-09-07T12:52:44.692Z,98762.59
2017-09-07T12:55:14.711Z,98764.66
2017-09-07T12:57:44.224Z,98755.30
2017-09-07T13:00:14.967Z,98764.90
2017-09-07T13:02:44.152Z,98757.66
2017-09-07T13:05:14.609Z,98754.91
2017-09-07T13:07:43.851Z,98762.12
2017-09-07T13:10:14.816Z,98764.69
2017-09-07T13:12:44.388Z,98764.92
2017-09-07T13:15:14.226Z,98776.67
2017-09-07T13:17:44.231Z,98780.34
2017-09-07T13:20:15.519Z,98784.44
2017-09-07T13:22:45.031Z,98788.92
2017-09-07T13:25:15.223Z,98789.56
2017-09-07T13:27:44.779Z,98784.23
2017-09-07T13:30:14.682Z,98783.16
2017-09-07T13:32:44.031Z,98792.03
2017-09-07T13:35:13.586Z,98798.27
2017-09-07T13:37:43.158Z,98804.87
2017-09-07T13:40:12.417Z,98798.53
2017-09-07T13:42:42.096Z,98808.57
2017-09-07T13:45:15.474Z,98809.34
2017-09-07T13:47:45.155Z,98816.20
2017-09-07T13:50:14.618Z,98804.54
2017-09-07T13:52:43.899Z,98803.34
2017-09-07T13:55:15.088Z,98794.16
2017-09-07T13:57:44.693Z,98790.31
2017-09-07T14:00:14.127Z,98789.77
2017-09-07T14:02:43.843Z,98781.89
2017-09-07T14:05:13.452Z,98779.02
2017-09-07T14:07:42.765Z,98781.66
2017-09-07T14:10:12.898Z,98775.48
2017-09-07T14:12:43.863Z,98780.52
2017-09-07T14:15:16.189Z,98779.02
2017-09-07T14:17:46.152Z,98777.39
2017-09-07T14:20:15.357Z,98776.99
2017-09-07T14:22:44.770Z,98769.62
2017-09-07T14:25:14.664Z,98769.58
2017-09-07T14:27:43.882Z,98764.09
2017-09-07T14:30:13.384Z,98768.13
2017-09-07T14:32:43.025Z,98771.06
2017-09-07T14:35:12.528Z,98768.39
2017-09-07T14:37:41.869Z,98774.42
2017-09-07T14:40:12.536Z,98775.72
2017-09-07T14:42:41.885Z,98771.39
2017-09-07T14:45:12.838Z,98772.72
2017-09-07T14:47:42.471Z,98769.23
2017-09-07T14:50:12.199Z,98771.61
2017-09-07T14:52:41.528Z,98772.09
2017-09-07T14:55:11.523Z,98766.94
2017-09-07T14:57:41.195Z,98754.95
2017-09-07T15:00:13.021Z,98762.19
2017-09-07T15:02:42.613Z,98759.23
2017-09-07T15:05:12.967Z,98757.64
2017-09-07T15:07:42.376Z,98755.31
2017-09-07T15:10:12.974Z,98757.88
2017-09-07T15:12:42.148Z,98753.00
2017-09-07T15:15:14.286Z,98756.75
2017-09-07T15:17:44.076Z,98749.70
2017-09-07T15:20:14.309Z,98750.11
2017-09-07T15:22:43.555Z,98751.73
2017-09-07T15:25:12.997Z,98753.67
2017-09-07T15:27:42.336Z,98750.94
2017-09-07T15:30:12.056Z,98753.69
2017-09-07T15:32:41.853Z,98748.84
2017-09-07T15:35:11.655Z,98746.95
2017-09-07T15:37:40.849Z,98745.20
2017-09-07T15:40:11.566Z,98743.64
2017-09-07T15:42:40.767Z,98739.45
2017-09-07T15:45:10.201Z,98742.95
2017-09-07T15:47:39.718Z,98744.18
2017-09-07T15:50:09.831Z,98739.44
2017-09-07T15:52:39.032Z,98739.39
2017-09-07T15:55:08.641Z,98733.41
2017-09-07T15:57:38.019Z,98734.51
2017-09-07T16:00:07.605Z,98727.56
2017-09-07T16:02:37.260Z,98738.20
2017-09-07T16:05:06.509Z,98735.97
2017-09-07T16:07:35.775Z,98738.84
2017-09-07T16:10:05.463Z,98737.42
2017-09-07T16:12:34.655Z,98733.61
2017-09-07T16:15:03.894Z,98733.73
2017-09-07T16:17:33.476Z,98731.98
2017-09-07T16:20:03.040Z,98728.62
2017-09-07T16:22:32.503Z,98724.07
2017-09-07T16:25:04.071Z,98731.92
2017-09-07T16:27:33.391Z,98725.20
2017-09-07T16:30:02.960Z,98720.31
2017-09-07T16:32:33.231Z,98724.88
2017-09-07T16:35:02.566Z,98727.52
2017-09-07T16:37:31.817Z,98715.93
2017-09-07T16:40:01.581Z,98719.02
2017-09-07T16:42:30.781Z,98716.23
2017-09-07T16:44:59.979Z,98720.22
2017-09-07T16:47:29.779Z,98720.09
2017-09-07T16:49:59.021Z,98715.05
2017-09-07T16:52:28.534Z,98713.97
2017-09-07T16:54:58.272Z,98718.34
2017-09-07T16:57:27.456Z,98718.89
2017-09-07T16:59:57.978Z,98720.42
2017-09-07T17:02:27.933Z,98720.28
2017-09-07T17:04:57.251Z,98723.20
2017-09-07T17:07:26.553Z,98722.92
2017-09-07T17:09:56.000Z,98722.56
2017-09-07T17:12:25.243Z,98730.84
2017-09-07T17:14:54.507Z,98727.28
2017-09-07T17:17:24.016Z,98720.14
2017-09-07T17:19:53.287Z,98723.86
2017-09-07T17:22:22.866Z,98725.20
2017-09-07T17:24:52.327Z,98727.36
2017-09-07T17:27:22.262Z,98729.36
2017-09-07T17:29:51.687Z,98721.44
2017-09-07T17:32:21.376Z,98725.97
2017-09-07T17:34:50.620Z,98719.17
2017-09-07T17:37:19.908Z,98719.86
2017-09-07T17:39:49.471Z,98726.94
2017-09-07T17:42:19.072Z,98728.66
2017-09-07T17:44:48.243Z,98730.09
2017-09-07T17:47:17.943Z,98724.98
2017-09-07T17:49:47.295Z,98724.77
2017-09-07T17:52:16.479Z,98723.86
2017-09-07T17:54:46.132Z,98720.18
2017-09-07T17:57:15.409Z,98718.59
2017-09-07T17:59:44.715Z,98718.86
2017-09-07T18:02:14.445Z,98718.61
2017-09-07T18:04:43.659Z,98724.80
2017-09-07T18:07:12.901Z,98726.50
2017-09-07T18:09:42.650Z,98733.22
2017-09-07T18:12:13.374Z,98731.53
2017-09-07T18:14:42.608Z,98736.81
2017-09-07T18:17:14.376Z,98739.59
2017-09-07T18:19:43.835Z,98745.02
2017-09-07T18:22:13.068Z,98746.81
2017-09-07T18:24:42.563Z,98748.58
2017-09-07T18:27:12.907Z,98744.55
2017-09-07T18:29:42.724Z,98748.59
2017-09-07T18:32:13.711Z,98751.00
2017-09-07T18:34:42.985Z,98741.61
2017-09-07T18:37:14.313Z,98744.72
2017-09-07T18:39:43.982Z,98754.17
2017-09-07T18:42:15.367Z,98751.42
2017-09-07T18:44:44.656Z,98762.78
2017-09-07T18:47:15.296Z,98761.20
2017-09-07T18:49:44.683Z,98757.48
2017-09-07T18:52:13.965Z,98753.28
2017-09-07T18:54:57.803Z,98751.83
2017-09-07T18:57:53.668Z,98756.33
2017-09-07T19:00:28.281Z,98751.47
2017-09-07T19:03:02.631Z,98757.80
2017-09-07T19:05:43.137Z,98754.45
2017-09-07T19:08:20.945Z,98756.55
2017-09-07T19:11:04.859Z,98765.05
2017-09-07T19:13:40.097Z,98763.80
2017-09-07T19:16:19.884Z,98759.80
2017-09-07T19:19:07.467Z,98761.97
2017-09-07T19:21:38.498Z,98759.23
2017-09-07T19:24:07.997Z,98760.77
2017-09-07T19:26:37.459Z,98758.39
2017-09-07T19:29:07.314Z,98760.09
2017-09-07T19:31:36.632Z,98769.64
2017-09-07T19:34:06.287Z,98763.16
2017-09-07T19:36:35.883Z,98759.39
2017-09-07T19:39:05.359Z,98763.16
2017-09-07T19:41:34.558Z,98758.38
2017-09-07T19:44:04.599Z,98761.77
2017-09-07T19:46:33.864Z,98763.06
2017-09-07T19:49:03.487Z,98763.94
2017-09-07T19:51:33.727Z,98754.27
2017-09-07T19:54:03.166Z,98759.50
2017-09-07T19:56:32.363Z,98763.42
2017-09-07T19:59:01.999Z,98762.37
2017-09-07T20:01:31.284Z,98758.44
2017-09-07T20:04:00.622Z,98754.59
2017-09-07T20:06:30.128Z,98757.23
2017-09-07T20:08:59.586Z,98763.00
2017-09-07T20:11:28.859Z,98758.93
2017-09-07T20:13:58.500Z,98755.61
2017-09-07T20:16:28.110Z,98748.05
2017-09-07T20:18:57.459Z,98746.96
2017-09-07T20:21:27.150Z,98744.82
2017-09-07T20:23:56.511Z,98741.97
2017-09-07T20:26:25.679Z,98734.87
2017-09-07T20:28:55.271Z,98734.44
2017-09-07T20:31:27.494Z,98733.77
2017-09-07T20:33:56.746Z,98729.53
2017-09-07T20:36:26.772Z,98730.57
2017-09-07T20:38:57.795Z,98727.06
2017-09-07T20:41:27.021Z,98722.23
2017-09-07T20:43:56.631Z,98723.82
2017-09-07T20:46:25.806Z,98714.52
2017-09-07T20:48:55.013Z,98716.69
2017-09-07T20:51:24.503Z,98713.73
2017-09-07T20:53:53.699Z,98711.48
2017-09-07T20:56:22.934Z,98707.47
2017-09-07T20:58:52.832Z,98710.25
2017-09-07T21:01:22.191Z,98711.38
2017-09-07T21:03:51.801Z,98709.14
2017-09-07T21:06:21.308Z,98708.80
2017-09-07T21:08:50.579Z,98706.20
2017-09-07T21:11:19.958Z,98704.50
2017-09-07T21:13:49.456Z,98700.47
2017-09-07T21:16:18.943Z,98703.07
2017-09-07T21:18:48.411Z,98696.19
2017-09-07T21:21:18.339Z,98694.31
2017-09-07T21:23:47.599Z,98697.70
2017-09-07T21:26:16.795Z,98689.77
2017-09-07T21:28:46.308Z,98691.69
2017-09-07T21:31:17.543Z,98685.30
2017-09-07T21:33:46.812Z,98688.52
2017-09-07T21:36:16.371Z,98682.75
2017-09-07T21:38:45.835Z,98677.06
2017-09-07T21:41:15.075Z,98677.19
2017-09-07T21:43:44.615Z,98675.14
2017-09-07T21:46:14.988Z,98673.19
2017-09-07T21:48:44.165Z,98670.42
2017-09-07T21:51:15.119Z,98668.03
2017-09-07T21:53:44.362Z,98660.52
2017-09-07T21:56:13.577Z,98664.86
2017-09-07T21:58:43.473Z,98662.86
2017-09-07T22:01:14.212Z,98663.39
2017-09-07T22:03:44.651Z,98660.13
2017-09-07T22:06:15.059Z,98655.81
2017-09-07T22:08:44.382Z,98659.80
2017-09-07T22:11:28.221Z,98657.34
2017-09-07T22:13:57.847Z,98661.84
2017-09-07T22:16:27.380Z,98658.04
2017-09-07T22:18:56.725Z,98655.56
2017-09-07T22:21:26.562Z,98650.22
2017-09-07T22:23:56.175Z,98650.13
2017-09-07T22:26:25.528Z,98643.14
2017-09-07T22:28:55.003Z,98639.45
2017-09-07T22:31:24.532Z,98645.31
2017-09-07T22:33:54.227Z,98639.70
2017-09-07T22:36:24.194Z,98632.02
2017-09-07T22:38:53.775Z,98636.53
2017-09-07T22:41:23.440Z,98626.05
2017-09-07T22:43:53.319Z,98633.52
2017-09-07T22:46:22.528Z,98632.43
2017-09-07T22:48:52.182Z,98631.42
2017-09-07T22:51:21.658Z,98630.84
2017-09-07T22:53:52.199Z,98627.00
2017-09-07T22:56:21.795Z,98625.73
2017-09-07T22:58:51.769Z,98618.05
2017-09-07T23:01:21.271Z,98621.98
2017-09-07T23:03:51.307Z,98619.66
2017-09-07T23:06:20.847Z,98618.05
2017-09-07T23:08:50.604Z,98618.83
2017-09-07T23:11:20.194Z,98614.31
2017-09-07T23:13:50.101Z,98612.39
2017-09-07T23:16:19.313Z,98607.73
2017-09-07T23:18:48.671Z,98605.56
2017-09-07T23:21:18.188Z,98608.45
2017-09-07T23:23:48.003Z,98606.75
2017-09-07T23:26:17.655Z,98598.39
2017-09-07T23:28:48.943Z,98597.39
2017-09-07T23:31:18.474Z,98598.39
2017-09-07T23:33:47.944Z,98602.98
2017-09-07T23:36:17.805Z,98600.58
2017-09-07T23:38:47.206Z,98598.41
2017-09-07T23:41:16.815Z,98597.48
2017-09-07T23:43:46.727Z,98595.41
2017-09-07T23:46:16.251Z,98591.64
2017-09-07T23:48:45.916Z,98587.62
2017-09-07T23:51:15.802Z,98587.10
2017-09-07T23:53:45.407Z,98590.45
2017-09-07T23:56:15.715Z,98583.09
2017-09-07T23:58:45.450Z,98584.38
